ADDS METAR Data INFO
IDs: Format: Raw Decoded Include TAF

Data at: 0202 UTC 26 Apr 2017

METAR for:KLRD (Laredo Intl Apt, TX, US)
Text:KLRD 260156Z 12011KT 10SM CLR 32/16 A2944 RMK AO2 SLP968 T03220161 $
Temperature: 32.2°C ( 90°F)
Dewpoint: 16.1°C ( 61°F) [RH = 38%]
Pressure (altimeter):29.44 inches Hg ( 997.0 mb) [Sea level pressure: 996.8 mb]
Winds:from the ESE (120 degrees) at 13 MPH (11 knots; 5.7 m/s)
Visibility:10 or more sm (16+ km)
Ceiling:at least 12,000 feet AGL
Clouds:sky clear below 12,000 feet AGL
QC Flag:SOME DATA ABOVE MAY BE INACCURATE!!!"$" is an indication the sensor requires maintenance.


Page loaded:  02:02 UTC  |   07:02 PM Pacific  |   08:02 PM Mountain  |   09:02 PM Central  |   10:02 PM Eastern

 

ADVISORIES

FORECASTS

FORECASTS

OBSERVATIONS

USER TOOLS

ABOUT US